createdAt,value
2019-04-22T00:02:11.264Z,20.82
2019-04-22T00:04:52.535Z,20.82
2019-04-22T00:07:35.887Z,20.20
2019-04-22T00:10:13.458Z,22.48
2019-04-22T00:12:47.068Z,22.45
2019-04-22T00:15:10.156Z,21.80
2019-04-22T00:17:58.843Z,22.62
2019-04-22T00:20:28.602Z,23.60
2019-04-22T00:22:52.290Z,24.00
2019-04-22T00:25:26.650Z,24.55
2019-04-22T00:28:03.340Z,25.10
2019-04-22T00:30:45.255Z,25.60
2019-04-22T00:33:07.795Z,24.82
2019-04-22T00:35:35.378Z,25.52
2019-04-22T00:38:17.341Z,26.35
2019-04-22T00:40:44.628Z,24.25
2019-04-22T00:43:21.185Z,24.55
2019-04-22T00:45:47.935Z,23.67
2019-04-22T00:51:04.148Z,25.52
2019-04-22T00:53:30.141Z,27.05
2019-04-22T00:56:07.883Z,28.47
2019-04-22T00:58:39.467Z,28.90
2019-04-22T01:01:14.089Z,29.25
2019-04-22T01:03:50.441Z,29.02
2019-04-22T01:06:16.077Z,28.10
2019-04-22T01:08:53.754Z,31.40
2019-04-22T01:11:23.097Z,31.52
2019-04-22T01:13:50.082Z,32.20
2019-04-22T01:16:26.326Z,33.65
2019-04-22T01:18:54.845Z,36.93
2019-04-22T01:21:37.956Z,33.00
2019-04-22T01:23:59.455Z,33.20
2019-04-22T01:26:28.976Z,32.78
2019-04-22T01:28:59.235Z,34.73
2019-04-22T01:31:24.903Z,35.60
2019-04-22T01:34:08.299Z,35.60
2019-04-22T01:36:44.094Z,40.85
2019-04-22T01:39:24.414Z,43.87
2019-04-22T01:44:33.273Z,43.00
2019-04-22T01:46:57.057Z,39.30
2019-04-22T01:49:33.536Z,40.55
2019-04-22T01:52:04.475Z,43.10
2019-04-22T01:54:40.289Z,41.37
2019-04-22T01:57:16.140Z,44.15
2019-04-22T01:59:31.871Z,41.92
2019-04-22T02:02:16.433Z,40.33
2019-04-22T02:04:51.691Z,38.88
2019-04-22T02:07:16.885Z,37.93
2019-04-22T02:09:49.590Z,38.10
2019-04-22T02:12:21.367Z,59.45
2019-04-22T02:14:52.413Z,39.67
2019-04-22T02:17:32.858Z,39.05
2019-04-22T02:20:06.750Z,38.23
2019-04-22T02:22:50.116Z,35.80
2019-04-22T02:25:11.105Z,35.52
2019-04-22T02:27:43.212Z,36.98
2019-04-22T02:30:06.139Z,31.15
2019-04-22T02:35:24.006Z,32.30
2019-04-22T02:37:55.012Z,32.38
2019-04-22T02:40:34.701Z,35.95
2019-04-22T02:43:05.086Z,35.45
2019-04-22T02:45:39.409Z,35.92
2019-04-22T02:48:18.804Z,35.38
2019-04-22T02:50:36.679Z,32.10
2019-04-22T02:53:14.344Z,34.65
2019-04-22T02:55:40.794Z,37.30
2019-04-22T02:58:21.853Z,33.40
2019-04-22T03:08:30.261Z,46.73
2019-04-22T03:11:04.053Z,46.25
2019-04-22T03:13:40.354Z,44.05
2019-04-22T03:18:48.126Z,45.35
2019-04-22T03:21:10.538Z,44.27
2019-04-22T03:26:22.558Z,44.08
2019-04-22T03:28:51.183Z,43.55
2019-04-22T03:34:49.479Z,40.70
2019-04-22T03:39:24.858Z,41.35
2019-04-22T03:44:18.745Z,35.15
2019-04-22T03:46:44.299Z,36.13
2019-04-22T03:49:32.876Z,34.20
2019-04-22T03:57:22.020Z,35.08
2019-04-22T03:59:33.751Z,33.98
2019-04-22T04:09:33.372Z,33.18
2019-04-22T04:12:03.595Z,33.18
2019-04-22T04:17:08.779Z,32.00
2019-04-22T04:20:03.910Z,32.33
2019-04-22T04:22:21.889Z,33.55
2019-04-22T04:30:09.979Z,32.23
2019-04-22T04:37:44.569Z,32.05
2019-04-22T04:45:31.687Z,33.30
2019-04-22T04:50:18.399Z,31.05
2019-04-22T04:55:28.399Z,36.90
2019-04-22T04:58:25.177Z,29.85
2019-04-22T05:08:19.806Z,28.73
2019-04-22T05:13:18.853Z,26.80
2019-04-22T05:16:03.378Z,26.37
2019-04-22T05:23:30.016Z,30.02
2019-04-22T05:26:04.261Z,28.55
2019-04-22T05:28:33.796Z,29.87
2019-04-22T05:31:08.409Z,28.20
2019-04-22T05:33:36.043Z,28.07
2019-04-22T05:36:14.275Z,27.58
2019-04-22T05:38:50.126Z,27.15
2019-04-22T05:41:17.740Z,26.82
2019-04-22T05:43:50.286Z,25.75
2019-04-22T05:46:20.214Z,28.42
2019-04-22T05:48:53.897Z,28.47
2019-04-22T05:51:27.892Z,27.60
2019-04-22T05:54:01.513Z,28.75
2019-04-22T05:56:37.296Z,28.27
2019-04-22T05:59:03.493Z,29.00
2019-04-22T06:01:44.963Z,28.50
2019-04-22T06:06:35.349Z,29.18
2019-04-22T06:09:10.735Z,29.98
2019-04-22T06:11:38.577Z,29.00
2019-04-22T06:14:15.262Z,26.80
2019-04-22T06:16:58.708Z,27.02
2019-04-22T06:19:24.781Z,25.30
2019-04-22T06:22:00.821Z,25.68
2019-04-22T06:29:39.905Z,26.57
2019-04-22T06:32:26.644Z,26.25
2019-04-22T06:34:42.175Z,26.77
2019-04-22T06:37:17.417Z,26.52
2019-04-22T06:39:51.067Z,25.43
2019-04-22T06:42:21.527Z,28.00
2019-04-22T06:44:57.929Z,28.25
2019-04-22T06:47:43.960Z,28.50
2019-04-22T06:50:03.882Z,27.48
2019-04-22T06:52:38.193Z,28.95
2019-04-22T06:55:16.708Z,27.73
2019-04-22T06:57:44.992Z,26.62
2019-04-22T07:00:17.486Z,26.25
2019-04-22T07:03:10.950Z,27.15
2019-04-22T07:05:23.606Z,27.02
2019-04-22T07:08:04.433Z,27.30
2019-04-22T07:10:35.041Z,29.80
2019-04-22T07:13:01.400Z,27.85
2019-04-22T07:15:46.636Z,31.55
2019-04-22T07:18:11.473Z,25.90
2019-04-22T07:23:13.434Z,22.13
2019-04-22T07:28:15.708Z,21.10
2019-04-22T07:30:56.267Z,23.92
2019-04-22T07:33:37.843Z,16.67
2019-04-22T07:36:06.701Z,15.60
2019-04-22T07:40:55.493Z,10.80
2019-04-22T07:43:40.870Z,10.32
2019-04-22T07:46:00.586Z,8.88
2019-04-22T07:48:38.188Z,9.95
2019-04-22T07:51:07.500Z,10.10
2019-04-22T07:53:45.431Z,9.70
2019-04-22T07:56:12.213Z,10.32
2019-04-22T07:58:48.805Z,10.20
2019-04-22T08:01:20.474Z,12.35
2019-04-22T08:04:01.903Z,16.25
2019-04-22T08:06:26.764Z,26.50
2019-04-22T08:09:00.477Z,22.10
2019-04-22T08:14:03.530Z,23.75
2019-04-22T08:16:38.247Z,24.02
2019-04-22T08:19:14.163Z,23.77
2019-04-22T08:21:38.432Z,11.75
2019-04-22T08:24:28.821Z,41.13
2019-04-22T08:26:50.330Z,15.38
2019-04-22T08:29:20.210Z,12.88
2019-04-22T08:31:54.808Z,12.43
2019-04-22T08:34:27.528Z,11.57
2019-04-22T08:37:34.264Z,12.05
2019-04-22T08:39:45.333Z,11.88
2019-04-22T08:41:57.211Z,11.03
2019-04-22T08:44:52.201Z,9.50
2019-04-22T08:47:15.243Z,10.65
2019-04-22T08:49:42.446Z,10.10
2019-04-22T08:52:16.301Z,9.88
2019-04-22T08:54:43.672Z,9.68
2019-04-22T08:57:18.427Z,10.35
2019-04-22T08:59:48.958Z,9.83
2019-04-22T09:02:25.934Z,10.10
2019-04-22T09:04:55.959Z,11.03
2019-04-22T09:07:30.274Z,11.43
2019-04-22T09:09:55.374Z,11.03
2019-04-22T09:12:46.706Z,11.65
2019-04-22T09:14:57.574Z,11.20
2019-04-22T09:17:40.219Z,11.57
2019-04-22T09:20:13.023Z,11.55
2019-04-22T09:22:47.300Z,12.10
2019-04-22T09:25:16.664Z,12.53
2019-04-22T09:27:51.235Z,14.13
2019-04-22T09:30:27.499Z,14.13
2019-04-22T09:33:06.075Z,14.95
2019-04-22T09:35:31.653Z,15.18
2019-04-22T09:38:22.818Z,14.90
2019-04-22T09:40:37.530Z,15.48
2019-04-22T09:43:09.974Z,13.88
2019-04-22T09:45:43.424Z,13.40
2019-04-22T09:48:18.076Z,13.00
2019-04-22T09:53:25.530Z,13.30
2019-04-22T09:55:51.103Z,13.32
2019-04-22T09:58:29.663Z,12.82
2019-04-22T10:01:05.910Z,13.22
2019-04-22T10:03:29.352Z,13.55
2019-04-22T10:06:09.887Z,13.30
2019-04-22T10:08:43.546Z,12.90
2019-04-22T10:11:15.390Z,13.68
2019-04-22T10:13:48.026Z,14.20
2019-04-22T10:16:17.373Z,16.45
2019-04-22T10:21:27.048Z,15.20
2019-04-22T10:23:59.946Z,14.13
2019-04-22T10:26:33.454Z,14.63
2019-04-22T10:31:36.897Z,14.98
2019-04-22T10:33:56.046Z,16.20
2019-04-22T10:36:15.105Z,15.72
2019-04-22T10:38:46.606Z,17.35
2019-04-22T10:41:18.483Z,15.75
2019-04-22T10:43:50.827Z,14.78
2019-04-22T10:46:22.211Z,14.83
2019-04-22T10:48:54.493Z,12.73
2019-04-22T10:51:26.562Z,12.98
2019-04-22T10:53:57.660Z,13.03
2019-04-22T10:56:28.618Z,12.37
2019-04-22T10:59:00.497Z,13.80
2019-04-22T11:01:31.764Z,11.75
2019-04-22T11:04:03.426Z,11.80
2019-04-22T11:06:40.035Z,12.30
2019-04-22T11:09:10.467Z,12.07
2019-04-22T11:11:48.780Z,13.32
2019-04-22T11:14:14.670Z,18.90
2019-04-22T11:53:06.950Z,15.80
2019-04-22T11:55:40.423Z,15.48
2019-04-22T11:58:12.889Z,14.65
2019-04-22T12:00:45.289Z,14.30
2019-04-22T12:03:17.184Z,15.30
2019-04-22T12:05:49.950Z,15.00
2019-04-22T12:08:22.840Z,14.93
2019-04-22T12:10:58.207Z,15.08
2019-04-22T12:13:28.269Z,15.43
2019-04-22T12:16:00.933Z,15.15
2019-04-22T12:18:33.330Z,15.03
2019-04-22T12:21:05.520Z,14.30
2019-04-22T12:23:39.048Z,14.35
2019-04-22T12:26:16.169Z,14.00
2019-04-22T12:28:44.667Z,12.80
2019-04-22T12:31:17.666Z,13.48
2019-04-22T12:33:49.624Z,11.90
2019-04-22T12:36:22.598Z,13.65
2019-04-22T12:38:55.662Z,11.80
2019-04-22T12:41:27.762Z,13.88
2019-04-22T12:44:07.523Z,11.63
2019-04-22T12:46:39.610Z,11.35
2019-04-22T12:49:12.191Z,12.20
2019-04-22T12:51:45.342Z,12.40
2019-04-22T12:54:17.206Z,12.88
2019-04-22T12:56:49.160Z,12.13
2019-04-22T12:59:21.489Z,10.45
2019-04-22T13:01:53.332Z,10.45
2019-04-22T13:04:25.314Z,10.32
2019-04-22T13:06:57.682Z,9.75
2019-04-22T13:09:29.809Z,8.70
2019-04-22T13:12:03.235Z,10.35
2019-04-22T13:14:34.884Z,10.75
2019-04-22T13:17:08.169Z,12.70
2019-04-22T13:19:40.427Z,11.60
2019-04-22T13:22:12.542Z,10.90
2019-04-22T13:24:45.744Z,9.35
2019-04-22T13:27:19.240Z,9.60
2019-04-22T13:29:51.020Z,8.63
2019-04-22T13:32:24.940Z,8.60
2019-04-22T13:35:01.163Z,9.30
2019-04-22T13:37:30.785Z,9.13
2019-04-22T13:40:05.293Z,9.80
2019-04-22T13:42:37.512Z,9.43
2019-04-22T13:45:11.642Z,9.93
2019-04-22T13:48:02.987Z,9.23
2019-04-22T13:50:51.427Z,9.95
2019-04-22T13:53:37.718Z,9.98
2019-04-22T13:55:53.233Z,10.68
2019-04-22T13:58:12.378Z,10.48
2019-04-22T14:00:34.215Z,11.20
2019-04-22T14:03:08.735Z,10.13
2019-04-22T14:05:42.603Z,10.28
2019-04-22T14:08:16.131Z,11.22
2019-04-22T14:10:48.432Z,12.25
2019-04-22T14:13:21.680Z,13.25
2019-04-22T14:15:55.337Z,10.10
2019-04-22T14:18:28.631Z,10.68
2019-04-22T14:21:00.955Z,9.73
2019-04-22T14:23:33.105Z,9.40
2019-04-22T14:26:05.245Z,11.60
2019-04-22T14:28:37.514Z,10.98
2019-04-22T14:31:10.492Z,9.45
2019-04-22T14:33:46.468Z,8.58
2019-04-22T14:36:17.105Z,7.97
2019-04-22T14:38:49.761Z,7.70
2019-04-22T14:41:49.037Z,7.50
2019-04-22T14:45:00.278Z,6.85
2019-04-22T14:47:03.503Z,7.47
2019-04-22T14:49:28.623Z,7.65
2019-04-22T14:52:10.277Z,6.78
2019-04-22T14:54:28.333Z,7.08
2019-04-22T14:56:44.558Z,7.35
2019-04-22T14:59:16.841Z,7.20
2019-04-22T15:01:49.660Z,7.37
2019-04-22T15:04:21.780Z,7.12
2019-04-22T15:06:54.738Z,8.18
2019-04-22T15:09:27.905Z,6.42
2019-04-22T15:12:12.051Z,6.45
2019-04-22T15:14:33.169Z,6.67
2019-04-22T15:17:06.891Z,5.92
2019-04-22T15:19:40.110Z,6.12
2019-04-22T15:22:12.676Z,5.72
2019-04-22T15:24:45.027Z,6.15
2019-04-22T15:27:18.322Z,6.85
2019-04-22T15:29:51.618Z,6.30
2019-04-22T15:32:23.627Z,5.53
2019-04-22T15:34:55.644Z,5.37
2019-04-22T15:37:28.290Z,4.90
2019-04-22T15:40:00.596Z,4.92
2019-04-22T15:42:36.156Z,4.60
2019-04-22T15:45:08.596Z,4.67
2019-04-22T15:47:40.016Z,4.65
2019-04-22T15:50:14.098Z,4.78
2019-04-22T15:52:50.047Z,4.37
2019-04-22T15:55:20.589Z,4.00
2019-04-22T15:57:53.914Z,3.58
2019-04-22T16:00:38.256Z,3.50
2019-04-22T16:02:59.632Z,3.47
2019-04-22T16:05:32.244Z,3.00
2019-04-22T16:08:04.650Z,3.12
2019-04-22T16:10:37.767Z,3.00
2019-04-22T16:13:17.314Z,3.65
2019-04-22T16:15:44.501Z,2.52
2019-04-22T16:18:18.032Z,2.80
2019-04-22T16:20:50.336Z,3.22
2019-04-22T16:23:24.608Z,3.95
2019-04-22T16:25:56.568Z,4.78
2019-04-22T16:28:29.317Z,5.45
2019-04-22T16:31:01.503Z,6.90
2019-04-22T16:33:36.559Z,6.15
2019-04-22T16:36:07.092Z,6.47
2019-04-22T16:38:40.624Z,6.90
2019-04-22T16:41:12.890Z,6.83
2019-04-22T16:43:44.915Z,7.53
2019-04-22T16:46:16.749Z,6.60
2019-04-22T16:48:49.702Z,6.15
2019-04-22T16:51:22.234Z,6.37
2019-04-22T16:53:54.065Z,5.72
2019-04-22T16:56:26.711Z,5.97
2019-04-22T16:58:59.093Z,6.05
2019-04-22T17:01:32.668Z,4.60
2019-04-22T17:04:06.919Z,4.58
2019-04-22T17:06:41.239Z,4.55
2019-04-22T17:09:17.091Z,5.33
2019-04-22T17:11:47.745Z,5.15
2019-04-22T17:14:29.664Z,4.42
2019-04-22T17:16:52.799Z,5.22
2019-04-22T17:19:24.760Z,5.83
2019-04-22T17:21:57.634Z,5.33
2019-04-22T17:24:29.982Z,6.35
2019-04-22T17:27:02.333Z,6.55
2019-04-22T17:29:34.763Z,6.17
2019-04-22T17:32:13.218Z,6.45
2019-04-22T17:34:41.247Z,7.00
2019-04-22T17:37:21.672Z,7.25
2019-04-22T17:40:04.717Z,6.45
2019-04-22T17:42:39.852Z,6.30
2019-04-22T17:45:19.215Z,6.10
2019-04-22T17:47:39.713Z,6.60
2019-04-22T17:50:28.550Z,6.85
2019-04-22T17:53:03.173Z,6.05
2019-04-22T17:55:36.477Z,6.55
2019-04-22T17:58:07.959Z,6.53
2019-04-22T18:00:32.293Z,6.35
2019-04-22T18:03:03.107Z,6.90
2019-04-22T18:05:34.670Z,6.80
2019-04-22T18:08:17.405Z,6.70
2019-04-22T18:10:47.374Z,5.83
2019-04-22T18:13:27.777Z,6.28
2019-04-22T18:15:54.907Z,6.37
2019-04-22T18:18:33.650Z,6.95
2019-04-22T18:20:56.377Z,6.28
2019-04-22T18:23:24.428Z,6.35
2019-04-22T18:26:05.616Z,6.35
2019-04-22T18:28:45.252Z,6.72
2019-04-22T18:31:12.019Z,6.42
2019-04-22T18:33:43.344Z,6.45
2019-04-22T18:36:19.752Z,6.28
2019-04-22T18:39:03.082Z,7.15
2019-04-22T18:41:25.073Z,6.30
2019-04-22T18:44:07.992Z,6.03
2019-04-22T18:46:31.454Z,6.10
2019-04-22T18:49:11.292Z,5.55
2019-04-22T18:51:42.634Z,6.42
2019-04-22T18:54:18.300Z,6.10
2019-04-22T18:56:48.067Z,6.03
2019-04-22T18:59:12.490Z,5.20
2019-04-22T19:01:35.856Z,5.00
2019-04-22T19:04:15.203Z,5.00
2019-04-22T19:06:58.660Z,5.00
2019-04-22T19:09:41.600Z,4.55
2019-04-22T19:14:49.938Z,5.75
2019-04-22T19:17:28.525Z,5.25
2019-04-22T19:20:00.082Z,5.45
2019-04-22T19:22:25.381Z,5.35
2019-04-22T19:24:47.606Z,5.50
2019-04-22T19:27:26.588Z,5.83
2019-04-22T19:30:07.459Z,5.65
2019-04-22T19:35:19.786Z,6.00
2019-04-22T19:37:52.264Z,6.35
2019-04-22T19:40:42.037Z,5.78
2019-04-22T19:43:03.960Z,5.67
2019-04-22T19:45:33.062Z,5.80
2019-04-22T19:48:16.662Z,6.05
2019-04-22T19:50:52.731Z,5.37
2019-04-22T19:53:38.810Z,5.55
2019-04-22T19:55:49.654Z,6.17
2019-04-22T19:58:20.141Z,5.47
2019-04-22T20:00:51.688Z,6.45
2019-04-22T20:03:37.754Z,6.00
2019-04-22T20:06:05.583Z,5.53
2019-04-22T20:08:42.364Z,5.80
2019-04-22T20:11:19.716Z,6.50
2019-04-22T20:13:51.577Z,5.80
2019-04-22T20:16:08.607Z,5.65
2019-04-22T20:18:56.522Z,6.28
2019-04-22T20:21:31.478Z,5.90
2019-04-22T20:23:49.163Z,6.08
2019-04-22T20:26:24.507Z,6.45
2019-04-22T20:29:02.747Z,6.28
2019-04-22T20:31:41.060Z,6.45
2019-04-22T20:34:16.211Z,6.53
2019-04-22T20:37:01.702Z,7.30
2019-04-22T20:39:12.486Z,6.65
2019-04-22T20:41:41.012Z,7.28
2019-04-22T20:44:32.360Z,6.72
2019-04-22T20:46:57.389Z,6.95
2019-04-22T20:49:32.201Z,7.20
2019-04-22T20:52:06.367Z,6.22
2019-04-22T20:54:39.021Z,6.37
2019-04-22T20:57:07.400Z,6.67
2019-04-22T20:59:37.141Z,6.45
2019-04-22T21:02:12.208Z,6.62
2019-04-22T21:04:41.544Z,6.30
2019-04-22T21:07:19.659Z,6.05
2019-04-22T21:09:53.957Z,5.72
2019-04-22T21:12:22.397Z,5.78
2019-04-22T21:15:10.565Z,6.03
2019-04-22T21:17:36.182Z,5.58
2019-04-22T21:20:18.349Z,6.15
2019-04-22T21:22:43.314Z,5.95
2019-04-22T21:25:11.565Z,5.95
2019-04-22T21:27:52.670Z,6.05
2019-04-22T21:30:24.560Z,6.28
2019-04-22T21:32:53.465Z,6.08
2019-04-22T21:35:51.936Z,6.00
2019-04-22T21:38:08.723Z,6.37
2019-04-22T21:40:35.473Z,5.90
2019-04-22T21:43:13.685Z,6.03
2019-04-22T21:45:39.266Z,6.20
2019-04-22T21:48:28.101Z,5.62
2019-04-22T21:50:54.307Z,6.60
2019-04-22T21:53:31.491Z,6.55
2019-04-22T21:56:00.346Z,5.90
2019-04-22T21:58:35.767Z,6.55
2019-04-22T22:01:16.977Z,7.37
2019-04-22T22:03:41.671Z,7.17
2019-04-22T22:06:04.861Z,6.75
2019-04-22T22:08:46.191Z,6.35
2019-04-22T22:11:13.938Z,7.08
2019-04-22T22:13:50.553Z,7.03
2019-04-22T22:16:18.897Z,6.83
2019-04-22T22:19:04.082Z,6.95
2019-04-22T22:24:05.900Z,7.05
2019-04-22T22:26:40.038Z,7.47
2019-04-22T22:31:47.312Z,7.33
2019-04-22T22:34:16.605Z,7.58
2019-04-22T22:36:40.342Z,6.97
2019-04-22T22:39:16.498Z,7.72
2019-04-22T22:41:34.158Z,6.95
2019-04-22T22:44:14.130Z,6.60
2019-04-22T22:46:56.091Z,8.18
2019-04-22T22:49:33.013Z,7.70
2019-04-22T22:52:31.214Z,7.05
2019-04-22T22:54:39.289Z,7.37
2019-04-22T22:57:21.398Z,8.48
2019-04-22T22:59:45.047Z,8.20
2019-04-22T23:02:15.689Z,8.98
2019-04-22T23:04:53.663Z,8.75
2019-04-22T23:07:32.246Z,8.45
2019-04-22T23:10:05.071Z,7.28
2019-04-22T23:12:40.586Z,8.60
2019-04-22T23:14:58.975Z,8.03
2019-04-22T23:17:22.542Z,7.67
2019-04-22T23:19:53.734Z,8.38
2019-04-22T23:22:32.456Z,8.28
2019-04-22T23:25:23.418Z,8.00
2019-04-22T23:27:47.674Z,8.53
2019-04-22T23:30:15.870Z,8.63
2019-04-22T23:32:51.780Z,8.63
2019-04-22T23:35:30.739Z,8.95
2019-04-22T23:38:03.554Z,8.85
2019-04-22T23:40:39.014Z,8.83
2019-04-22T23:43:15.752Z,9.13
2019-04-22T23:45:46.603Z,10.05
2019-04-22T23:48:11.533Z,9.43
2019-04-22T23:50:51.105Z,9.43
2019-04-22T23:53:42.585Z,9.25
2019-04-22T23:55:59.204Z,9.70
2019-04-22T23:58:43.640Z,9.10
